ASX714 MMMX-MGGT
Flight info
| Callsign | ASX714 |
|---|---|
| Flight time | 1h 26m |
| Altitude | 37000 |
| Route | UKUNO3A UKUNO UT108 VER UA552 AUR |
| Aircraft | A320/M-SDE3FGHIRWY/LB1 |
Departure
| Time | 2026-05-08 14:26 |
|---|---|
| Airport | Mexico City Benito Juárez International Airport (MMMX) |
Arrival
| Time | 2026-05-08 15:52 |
|---|---|
| Airport | La Aurora International Airport (MGGT) |
| Time | Latitude | Longitude | Altitude | Speed | Heading |
|---|---|---|---|---|---|
| 2026-05-08 14:10 | 19.43435 | -99.08261 | 7302 ft | 0 kts | 330° |
| 2026-05-08 14:19 | 19.43421 | -99.08252 | 7302 ft | 3 kts | 329° |
| 2026-05-08 14:19 | 19.43404 | -99.08241 | 7302 ft | 3 kts | 328° |
| 2026-05-08 14:20 | 19.43386 | -99.08230 | 7302 ft | 3 kts | 326° |
| 2026-05-08 14:20 | 19.43374 | -99.08221 | 7302 ft | 1 kts | 324° |
| 2026-05-08 14:22 | 19.43372 | -99.08252 | 7302 ft | 10 kts | 234° |
| 2026-05-08 14:22 | 19.43319 | -99.08298 | 7302 ft | 10 kts | 224° |
| 2026-05-08 14:22 | 19.43279 | -99.08355 | 7302 ft | 10 kts | 238° |
| 2026-05-08 14:23 | 19.43227 | -99.08447 | 7301 ft | 19 kts | 239° |
| 2026-05-08 14:23 | 19.43158 | -99.08572 | 7301 ft | 20 kts | 239° |
| 2026-05-08 14:23 | 19.43085 | -99.08702 | 7301 ft | 21 kts | 240° |
| 2026-05-08 14:23 | 19.43009 | -99.08837 | 7301 ft | 22 kts | 238° |
| 2026-05-08 14:24 | 19.42939 | -99.08963 | 7301 ft | 10 kts | 239° |
| 2026-05-08 14:24 | 19.42888 | -99.09015 | 7301 ft | 11 kts | 196° |
| 2026-05-08 14:24 | 19.42819 | -99.08992 | 7301 ft | 10 kts | 150° |
| 2026-05-08 14:24 | 19.42816 | -99.08939 | 7302 ft | 8 kts | 53° |
| 2026-05-08 14:25 | 19.42869 | -99.08849 | 7302 ft | 35 kts | 60° |
| 2026-05-08 14:25 | 19.43122 | -99.08399 | 7300 ft | 104 kts | 59° |
| 2026-05-08 14:25 | 19.43583 | -99.07578 | 7304 ft | 157 kts | 59° |
| 2026-05-08 14:25 | 19.44211 | -99.06448 | 7498 ft | 185 kts | 60° |
| 2026-05-08 14:26 | 19.44846 | -99.05271 | 8327 ft | 184 kts | 60° |
| 2026-05-08 14:26 | 19.45501 | -99.04103 | 9124 ft | 185 kts | 59° |
| 2026-05-08 14:26 | 19.46193 | -99.02888 | 9338 ft | 202 kts | 59° |
| 2026-05-08 14:26 | 19.46960 | -99.01541 | 9422 ft | 225 kts | 59° |
| 2026-05-08 14:27 | 19.47810 | -99.00040 | 9561 ft | 249 kts | 59° |
| 2026-05-08 14:27 | 19.48741 | -98.98392 | 9739 ft | 272 kts | 59° |
| 2026-05-08 14:27 | 19.49735 | -98.96622 | 10008 ft | 293 kts | 59° |
| 2026-05-08 14:27 | 19.50790 | -98.94737 | 10584 ft | 300 kts | 59° |
| 2026-05-08 14:28 | 19.51863 | -98.92824 | 11269 ft | 303 kts | 59° |
| 2026-05-08 14:28 | 19.52939 | -98.90895 | 11975 ft | 305 kts | 62° |
| 2026-05-08 14:28 | 19.53676 | -98.88777 | 12676 ft | 308 kts | 75° |
| 2026-05-08 14:28 | 19.54241 | -98.86583 | 13390 ft | 310 kts | 74° |
| 2026-05-08 14:29 | 19.54819 | -98.84372 | 14074 ft | 312 kts | 74° |
| 2026-05-08 14:29 | 19.55406 | -98.82140 | 14685 ft | 315 kts | 75° |
| 2026-05-08 14:29 | 19.56002 | -98.79886 | 15259 ft | 319 kts | 75° |
| 2026-05-08 14:29 | 19.56597 | -98.77632 | 15853 ft | 323 kts | 76° |
| 2026-05-08 14:30 | 19.57201 | -98.75317 | 16428 ft | 327 kts | 78° |
| 2026-05-08 14:30 | 19.57503 | -98.72929 | 17000 ft | 328 kts | 91° |
| 2026-05-08 14:30 | 19.57292 | -98.70478 | 17223 ft | 343 kts | 103° |
| 2026-05-08 14:30 | 19.56774 | -98.67931 | 17357 ft | 361 kts | 104° |
| 2026-05-08 14:31 | 19.56227 | -98.65269 | 17482 ft | 378 kts | 104° |
| 2026-05-08 14:31 | 19.55660 | -98.62486 | 17622 ft | 394 kts | 103° |
| 2026-05-08 14:31 | 19.55075 | -98.59589 | 17749 ft | 409 kts | 103° |
| 2026-05-08 14:32 | 19.53871 | -98.53560 | 18458 ft | 421 kts | 103° |
| 2026-05-08 14:32 | 19.53272 | -98.50550 | 18856 ft | 424 kts | 104° |
| 2026-05-08 14:32 | 19.52661 | -98.47473 | 19241 ft | 428 kts | 104° |
| 2026-05-08 14:32 | 19.52044 | -98.44368 | 19615 ft | 431 kts | 104° |
| 2026-05-08 14:33 | 19.51420 | -98.41239 | 20003 ft | 434 kts | 104° |
| 2026-05-08 14:33 | 19.50791 | -98.38093 | 20383 ft | 437 kts | 104° |
| 2026-05-08 14:33 | 19.50156 | -98.34930 | 20744 ft | 440 kts | 104° |
| 2026-05-08 14:33 | 19.49515 | -98.31748 | 21094 ft | 443 kts | 104° |
| 2026-05-08 14:34 | 19.48867 | -98.28538 | 21421 ft | 446 kts | 104° |
| 2026-05-08 14:34 | 19.48216 | -98.25313 | 21745 ft | 449 kts | 104° |
| 2026-05-08 14:34 | 19.47559 | -98.22066 | 22066 ft | 452 kts | 104° |
| 2026-05-08 14:34 | 19.46897 | -98.18800 | 22369 ft | 455 kts | 105° |
| 2026-05-08 14:35 | 19.46236 | -98.15547 | 22676 ft | 457 kts | 105° |
| 2026-05-08 14:35 | 19.45564 | -98.12239 | 22968 ft | 460 kts | 105° |
| 2026-05-08 14:35 | 19.44889 | -98.08916 | 23251 ft | 462 kts | 105° |
| 2026-05-08 14:35 | 19.44212 | -98.05571 | 23532 ft | 464 kts | 105° |
| 2026-05-08 14:36 | 19.43764 | -98.03352 | 23698 ft | 466 kts | 105° |
| 2026-05-08 14:36 | 19.43122 | -97.98817 | 23994 ft | 471 kts | 98° |
| 2026-05-08 14:36 | 19.42797 | -97.95353 | 24225 ft | 472 kts | 98° |
| 2026-05-08 14:36 | 19.42575 | -97.93010 | 24404 ft | 473 kts | 98° |
| 2026-05-08 14:37 | 19.42248 | -97.89584 | 24628 ft | 474 kts | 98° |
| 2026-05-08 14:37 | 19.41911 | -97.86104 | 24839 ft | 476 kts | 98° |
| 2026-05-08 14:37 | 19.41569 | -97.82607 | 25046 ft | 478 kts | 98° |
| 2026-05-08 14:37 | 19.41225 | -97.79101 | 25248 ft | 480 kts | 98° |
| 2026-05-08 14:38 | 19.40879 | -97.75575 | 25443 ft | 481 kts | 98° |
| 2026-05-08 14:38 | 19.40532 | -97.72042 | 25633 ft | 483 kts | 98° |
| 2026-05-08 14:38 | 19.40184 | -97.68501 | 25820 ft | 485 kts | 98° |
| 2026-05-08 14:38 | 19.39835 | -97.64943 | 26002 ft | 486 kts | 98° |
| 2026-05-08 14:39 | 19.39486 | -97.61371 | 26183 ft | 488 kts | 98° |
| 2026-05-08 14:39 | 19.39134 | -97.57785 | 26348 ft | 489 kts | 98° |
| 2026-05-08 14:39 | 19.38782 | -97.54202 | 26530 ft | 490 kts | 98° |
| 2026-05-08 14:39 | 19.38428 | -97.50601 | 26694 ft | 491 kts | 98° |
| 2026-05-08 14:40 | 19.38073 | -97.46995 | 26838 ft | 492 kts | 98° |
| 2026-05-08 14:40 | 19.37720 | -97.43385 | 26962 ft | 494 kts | 98° |
| 2026-05-08 14:40 | 19.37363 | -97.39764 | 27085 ft | 495 kts | 98° |
| 2026-05-08 14:40 | 19.37008 | -97.36188 | 27202 ft | 495 kts | 98° |
| 2026-05-08 14:41 | 19.36647 | -97.32556 | 27325 ft | 496 kts | 98° |
| 2026-05-08 14:41 | 19.36281 | -97.28919 | 27436 ft | 497 kts | 98° |
| 2026-05-08 14:41 | 19.35915 | -97.25281 | 27558 ft | 497 kts | 98° |
| 2026-05-08 14:41 | 19.35548 | -97.21635 | 27680 ft | 498 kts | 98° |
| 2026-05-08 14:42 | 19.35182 | -97.17994 | 27796 ft | 498 kts | 98° |
| 2026-05-08 14:42 | 19.34817 | -97.14345 | 27896 ft | 498 kts | 98° |
| 2026-05-08 14:42 | 19.34449 | -97.10693 | 28029 ft | 499 kts | 98° |
| 2026-05-08 14:42 | 19.34078 | -97.07034 | 28160 ft | 499 kts | 98° |
| 2026-05-08 14:43 | 19.33570 | -97.03410 | 28283 ft | 497 kts | 104° |
| 2026-05-08 14:43 | 19.32772 | -96.99851 | 28422 ft | 497 kts | 105° |
| 2026-05-08 14:43 | 19.31166 | -96.92742 | 28665 ft | 495 kts | 105° |
| 2026-05-08 14:44 | 19.30365 | -96.89195 | 28812 ft | 495 kts | 105° |
| 2026-05-08 14:44 | 19.29565 | -96.85657 | 28935 ft | 495 kts | 105° |
| 2026-05-08 14:44 | 19.28773 | -96.82156 | 29056 ft | 494 kts | 105° |
| 2026-05-08 14:44 | 19.27974 | -96.78630 | 29244 ft | 492 kts | 105° |
| 2026-05-08 14:45 | 19.27175 | -96.75115 | 29395 ft | 492 kts | 105° |
| 2026-05-08 14:45 | 19.26373 | -96.71593 | 29545 ft | 492 kts | 105° |
| 2026-05-08 14:45 | 19.25572 | -96.68077 | 29673 ft | 491 kts | 105° |
| 2026-05-08 14:45 | 19.24773 | -96.64567 | 29838 ft | 491 kts | 105° |
| 2026-05-08 14:46 | 19.23972 | -96.61051 | 29971 ft | 491 kts | 105° |
| 2026-05-08 14:46 | 19.23171 | -96.57523 | 30114 ft | 491 kts | 105° |
| 2026-05-08 14:46 | 19.22375 | -96.54008 | 30228 ft | 491 kts | 105° |
| 2026-05-08 14:46 | 19.21585 | -96.50534 | 30354 ft | 491 kts | 105° |
| 2026-05-08 14:47 | 19.20782 | -96.47023 | 30487 ft | 491 kts | 105° |
| 2026-05-08 14:47 | 19.19974 | -96.43509 | 30616 ft | 492 kts | 105° |
| 2026-05-08 14:47 | 19.19167 | -96.39997 | 30739 ft | 492 kts | 105° |
| 2026-05-08 14:47 | 19.18357 | -96.36477 | 30865 ft | 492 kts | 105° |
| 2026-05-08 14:48 | 19.17551 | -96.32956 | 31006 ft | 492 kts | 105° |
| 2026-05-08 14:48 | 19.16746 | -96.29435 | 31146 ft | 492 kts | 105° |
| 2026-05-08 14:48 | 19.15939 | -96.25916 | 31290 ft | 492 kts | 105° |
| 2026-05-08 14:48 | 19.15119 | -96.22408 | 31437 ft | 492 kts | 107° |
| 2026-05-08 14:49 | 19.13969 | -96.19014 | 31580 ft | 489 kts | 116° |
| 2026-05-08 14:49 | 19.12354 | -96.15856 | 31722 ft | 487 kts | 125° |
| 2026-05-08 14:49 | 19.10459 | -96.12893 | 31863 ft | 487 kts | 126° |
| 2026-05-08 14:49 | 19.08554 | -96.09929 | 32006 ft | 487 kts | 126° |
| 2026-05-08 14:50 | 19.06656 | -96.06966 | 32164 ft | 486 kts | 126° |
| 2026-05-08 14:50 | 19.04757 | -96.03996 | 32333 ft | 486 kts | 126° |
| 2026-05-08 14:50 | 19.02866 | -96.01033 | 32495 ft | 486 kts | 126° |
| 2026-05-08 14:50 | 19.00979 | -95.98076 | 32649 ft | 486 kts | 125° |
| 2026-05-08 14:51 | 18.99112 | -95.95153 | 32810 ft | 486 kts | 126° |
| 2026-05-08 14:51 | 18.97217 | -95.92198 | 32961 ft | 486 kts | 126° |
| 2026-05-08 14:51 | 18.95298 | -95.89213 | 33129 ft | 486 kts | 126° |
| 2026-05-08 14:51 | 18.93422 | -95.86300 | 33298 ft | 486 kts | 126° |
| 2026-05-08 14:52 | 18.91494 | -95.83310 | 33478 ft | 486 kts | 126° |
| 2026-05-08 14:52 | 18.87714 | -95.77435 | 33825 ft | 486 kts | 126° |
| 2026-05-08 14:52 | 18.85816 | -95.74482 | 33978 ft | 486 kts | 126° |
| 2026-05-08 14:53 | 18.83914 | -95.71526 | 34139 ft | 486 kts | 126° |
| 2026-05-08 14:53 | 18.82014 | -95.68575 | 34329 ft | 485 kts | 125° |
| 2026-05-08 14:53 | 18.80119 | -95.65636 | 34520 ft | 484 kts | 125° |
| 2026-05-08 14:53 | 18.78226 | -95.62702 | 34724 ft | 483 kts | 125° |
| 2026-05-08 14:54 | 18.76339 | -95.59778 | 34911 ft | 482 kts | 125° |
| 2026-05-08 14:54 | 18.74455 | -95.56857 | 35104 ft | 481 kts | 126° |
| 2026-05-08 14:54 | 18.72573 | -95.53942 | 35282 ft | 480 kts | 126° |
| 2026-05-08 14:54 | 18.70695 | -95.51037 | 35457 ft | 479 kts | 126° |
| 2026-05-08 14:55 | 18.68819 | -95.48138 | 35631 ft | 478 kts | 125° |
| 2026-05-08 14:55 | 18.66943 | -95.45237 | 35797 ft | 478 kts | 125° |
| 2026-05-08 14:55 | 18.65073 | -95.42345 | 35961 ft | 477 kts | 125° |
| 2026-05-08 14:55 | 18.63204 | -95.39455 | 36124 ft | 476 kts | 125° |
| 2026-05-08 14:56 | 18.61355 | -95.36597 | 36278 ft | 476 kts | 125° |
| 2026-05-08 14:56 | 18.59493 | -95.33718 | 36444 ft | 475 kts | 126° |
| 2026-05-08 14:56 | 18.57628 | -95.30841 | 36618 ft | 474 kts | 126° |
| 2026-05-08 14:56 | 18.55765 | -95.27971 | 36791 ft | 473 kts | 126° |
| 2026-05-08 14:57 | 18.53902 | -95.25104 | 36900 ft | 473 kts | 126° |
| 2026-05-08 14:57 | 18.50188 | -95.19384 | 36917 ft | 472 kts | 126° |
| 2026-05-08 14:58 | 18.46508 | -95.13708 | 36920 ft | 472 kts | 126° |
| 2026-05-08 14:58 | 18.42796 | -95.07994 | 36920 ft | 472 kts | 126° |
| 2026-05-08 14:59 | 18.39078 | -95.02289 | 36920 ft | 472 kts | 126° |
| 2026-05-08 14:59 | 18.33496 | -94.93723 | 36923 ft | 474 kts | 126° |
| 2026-05-08 15:00 | 18.29766 | -94.88008 | 36929 ft | 474 kts | 126° |
| 2026-05-08 15:00 | 18.26051 | -94.82312 | 36932 ft | 474 kts | 126° |
| 2026-05-08 15:01 | 18.22311 | -94.76583 | 36932 ft | 475 kts | 126° |
| 2026-05-08 15:01 | 18.18562 | -94.70860 | 36930 ft | 475 kts | 126° |
| 2026-05-08 15:02 | 18.14810 | -94.65132 | 36942 ft | 475 kts | 126° |
| 2026-05-08 15:02 | 18.11047 | -94.59426 | 36941 ft | 474 kts | 128° |
| 2026-05-08 15:03 | 18.06552 | -94.54394 | 36955 ft | 472 kts | 137° |
| 2026-05-08 15:03 | 18.01855 | -94.49587 | 36949 ft | 471 kts | 137° |
| 2026-05-08 15:04 | 17.97162 | -94.44779 | 36943 ft | 471 kts | 137° |
| 2026-05-08 15:04 | 17.92472 | -94.39986 | 36928 ft | 470 kts | 137° |
| 2026-05-08 15:05 | 17.87780 | -94.35193 | 36935 ft | 470 kts | 137° |
| 2026-05-08 15:05 | 17.83086 | -94.30400 | 36927 ft | 470 kts | 137° |
| 2026-05-08 15:06 | 17.78403 | -94.25613 | 36933 ft | 470 kts | 137° |
| 2026-05-08 15:06 | 17.73716 | -94.20832 | 36928 ft | 470 kts | 137° |
| 2026-05-08 15:07 | 17.69029 | -94.16063 | 36928 ft | 469 kts | 137° |
| 2026-05-08 15:07 | 17.64342 | -94.11288 | 36929 ft | 470 kts | 137° |
| 2026-05-08 15:08 | 17.60447 | -94.07318 | 36932 ft | 469 kts | 137° |
| 2026-05-08 15:08 | 17.54999 | -94.01779 | 36936 ft | 469 kts | 137° |
| 2026-05-08 15:09 | 17.50305 | -93.97014 | 36937 ft | 469 kts | 137° |
| 2026-05-08 15:09 | 17.45615 | -93.92251 | 36937 ft | 469 kts | 137° |
| 2026-05-08 15:10 | 17.40933 | -93.87498 | 36927 ft | 469 kts | 137° |
| 2026-05-08 15:10 | 17.36247 | -93.82752 | 36939 ft | 469 kts | 137° |
| 2026-05-08 15:11 | 17.31556 | -93.77997 | 36942 ft | 469 kts | 136° |
| 2026-05-08 15:11 | 17.26874 | -93.73254 | 36952 ft | 468 kts | 137° |
| 2026-05-08 15:12 | 17.22227 | -93.68550 | 36947 ft | 468 kts | 137° |
| 2026-05-08 15:12 | 17.17531 | -93.63807 | 36949 ft | 468 kts | 137° |
| 2026-05-08 15:13 | 17.12843 | -93.59066 | 36964 ft | 468 kts | 136° |
| 2026-05-08 15:13 | 17.08157 | -93.54331 | 36962 ft | 468 kts | 137° |
| 2026-05-08 15:14 | 17.03464 | -93.49605 | 36966 ft | 468 kts | 137° |
| 2026-05-08 15:14 | 16.98769 | -93.44881 | 36973 ft | 468 kts | 137° |
| 2026-05-08 15:15 | 16.94074 | -93.40156 | 36975 ft | 468 kts | 136° |
| 2026-05-08 15:15 | 16.89415 | -93.35463 | 36980 ft | 468 kts | 136° |
| 2026-05-08 15:16 | 16.84728 | -93.30744 | 36982 ft | 468 kts | 136° |
| 2026-05-08 15:16 | 16.80035 | -93.26036 | 36988 ft | 468 kts | 137° |
| 2026-05-08 15:17 | 16.75334 | -93.21320 | 37004 ft | 468 kts | 137° |
| 2026-05-08 15:17 | 16.70634 | -93.16603 | 37026 ft | 468 kts | 137° |
| 2026-05-08 15:18 | 16.65937 | -93.11890 | 37039 ft | 468 kts | 136° |
| 2026-05-08 15:18 | 16.61234 | -93.07188 | 37047 ft | 468 kts | 137° |
| 2026-05-08 15:19 | 16.56589 | -93.02422 | 37049 ft | 468 kts | 130° |
| 2026-05-08 15:19 | 16.52484 | -92.97221 | 37051 ft | 467 kts | 129° |
| 2026-05-08 15:20 | 16.48365 | -92.91984 | 37039 ft | 467 kts | 129° |
| 2026-05-08 15:20 | 16.44255 | -92.86756 | 37020 ft | 466 kts | 129° |
| 2026-05-08 15:21 | 16.40141 | -92.81531 | 37005 ft | 466 kts | 129° |
| 2026-05-08 15:21 | 16.36713 | -92.77195 | 36979 ft | 466 kts | 129° |
| 2026-05-08 15:22 | 16.31914 | -92.71139 | 36975 ft | 466 kts | 129° |
| 2026-05-08 15:22 | 16.27801 | -92.65937 | 36977 ft | 466 kts | 129° |
| 2026-05-08 15:23 | 16.24351 | -92.61570 | 36977 ft | 466 kts | 129° |
| 2026-05-08 15:23 | 16.20250 | -92.56392 | 36988 ft | 466 kts | 129° |
| 2026-05-08 15:24 | 16.16122 | -92.51187 | 36978 ft | 465 kts | 129° |
| 2026-05-08 15:24 | 16.12013 | -92.45990 | 36973 ft | 465 kts | 129° |
| 2026-05-08 15:25 | 16.07890 | -92.40790 | 36978 ft | 465 kts | 129° |
| 2026-05-08 15:25 | 16.03769 | -92.35608 | 36959 ft | 465 kts | 129° |
| 2026-05-08 15:26 | 15.99652 | -92.30446 | 36958 ft | 465 kts | 129° |
| 2026-05-08 15:26 | 15.95532 | -92.25266 | 36980 ft | 464 kts | 129° |
| 2026-05-08 15:27 | 15.91424 | -92.20087 | 36981 ft | 464 kts | 129° |
| 2026-05-08 15:27 | 15.87313 | -92.14914 | 36984 ft | 464 kts | 129° |
| 2026-05-08 15:28 | 15.83198 | -92.09754 | 36988 ft | 463 kts | 129° |
| 2026-05-08 15:28 | 15.79086 | -92.04593 | 36987 ft | 463 kts | 129° |
| 2026-05-08 15:29 | 15.74976 | -91.99441 | 37004 ft | 463 kts | 129° |
| 2026-05-08 15:29 | 15.70911 | -91.94298 | 37021 ft | 463 kts | 125° |
| 2026-05-08 15:30 | 15.67281 | -91.88783 | 37021 ft | 463 kts | 123° |
| 2026-05-08 15:30 | 15.63668 | -91.83249 | 37047 ft | 462 kts | 123° |
| 2026-05-08 15:31 | 15.60043 | -91.77721 | 37064 ft | 463 kts | 123° |
| 2026-05-08 15:31 | 15.56444 | -91.72235 | 37061 ft | 463 kts | 123° |
| 2026-05-08 15:32 | 15.52822 | -91.66709 | 37081 ft | 463 kts | 123° |
| 2026-05-08 15:32 | 15.49204 | -91.61194 | 37084 ft | 463 kts | 123° |
| 2026-05-08 15:33 | 15.45579 | -91.55676 | 37081 ft | 463 kts | 123° |
| 2026-05-08 15:33 | 15.41960 | -91.50162 | 37082 ft | 463 kts | 123° |
| 2026-05-08 15:34 | 15.38334 | -91.44647 | 37087 ft | 462 kts | 123° |
| 2026-05-08 15:34 | 15.34714 | -91.39149 | 37044 ft | 461 kts | 123° |
| 2026-05-08 15:35 | 15.32911 | -91.36408 | 36729 ft | 459 kts | 123° |
| 2026-05-08 15:35 | 15.31108 | -91.33670 | 35873 ft | 461 kts | 123° |
| 2026-05-08 15:35 | 15.29301 | -91.30928 | 34992 ft | 462 kts | 123° |
| 2026-05-08 15:35 | 15.27505 | -91.28207 | 34076 ft | 465 kts | 123° |
| 2026-05-08 15:36 | 15.25673 | -91.25432 | 33081 ft | 465 kts | 124° |
| 2026-05-08 15:36 | 15.23841 | -91.22659 | 32006 ft | 467 kts | 124° |
| 2026-05-08 15:36 | 15.22002 | -91.19874 | 30915 ft | 470 kts | 124° |
| 2026-05-08 15:36 | 15.20156 | -91.17076 | 29794 ft | 471 kts | 125° |
| 2026-05-08 15:37 | 15.18302 | -91.14272 | 28490 ft | 473 kts | 125° |
| 2026-05-08 15:37 | 15.16442 | -91.11459 | 27237 ft | 473 kts | 124° |
| 2026-05-08 15:37 | 15.14582 | -91.08645 | 26040 ft | 473 kts | 125° |
| 2026-05-08 15:37 | 15.12594 | -91.05945 | 24902 ft | 472 kts | 131° |
| 2026-05-08 15:38 | 15.10288 | -91.03574 | 23798 ft | 460 kts | 137° |
| 2026-05-08 15:38 | 15.07954 | -91.01374 | 22587 ft | 448 kts | 137° |
| 2026-05-08 15:38 | 15.05709 | -90.99252 | 21470 ft | 438 kts | 137° |
| 2026-05-08 15:38 | 15.03488 | -90.97142 | 20484 ft | 429 kts | 137° |
| 2026-05-08 15:39 | 15.01288 | -90.95048 | 19628 ft | 426 kts | 137° |
| 2026-05-08 15:39 | 14.99098 | -90.92965 | 18754 ft | 428 kts | 137° |
| 2026-05-08 15:39 | 14.96890 | -90.90867 | 17712 ft | 433 kts | 137° |
| 2026-05-08 15:39 | 14.94674 | -90.88764 | 16898 ft | 430 kts | 137° |
| 2026-05-08 15:40 | 14.92507 | -90.86710 | 16140 ft | 427 kts | 137° |
| 2026-05-08 15:40 | 14.90323 | -90.84640 | 15361 ft | 424 kts | 137° |
| 2026-05-08 15:40 | 14.88160 | -90.82590 | 14625 ft | 419 kts | 137° |
| 2026-05-08 15:40 | 14.86010 | -90.80554 | 13898 ft | 416 kts | 137° |
| 2026-05-08 15:41 | 14.83881 | -90.78539 | 13137 ft | 411 kts | 136° |
| 2026-05-08 15:41 | 14.81831 | -90.76605 | 12463 ft | 391 kts | 136° |
| 2026-05-08 15:41 | 14.79860 | -90.74747 | 11825 ft | 379 kts | 137° |
| 2026-05-08 15:41 | 14.77946 | -90.72940 | 11334 ft | 362 kts | 137° |
| 2026-05-08 15:42 | 14.76162 | -90.71256 | 11177 ft | 331 kts | 136° |
| 2026-05-08 15:42 | 14.74526 | -90.69710 | 11049 ft | 305 kts | 136° |
| 2026-05-08 15:42 | 14.73003 | -90.68270 | 10698 ft | 296 kts | 136° |
| 2026-05-08 15:42 | 14.71493 | -90.66841 | 10469 ft | 293 kts | 136° |
| 2026-05-08 15:43 | 14.69990 | -90.65415 | 10254 ft | 292 kts | 136° |
| 2026-05-08 15:43 | 14.68493 | -90.63994 | 10032 ft | 291 kts | 136° |
| 2026-05-08 15:43 | 14.67004 | -90.62586 | 9878 ft | 290 kts | 136° |
| 2026-05-08 15:43 | 14.65528 | -90.61190 | 9750 ft | 286 kts | 136° |
| 2026-05-08 15:44 | 14.64088 | -90.59829 | 9632 ft | 275 kts | 136° |
| 2026-05-08 15:44 | 14.62699 | -90.58517 | 9495 ft | 265 kts | 136° |
| 2026-05-08 15:44 | 14.61360 | -90.57254 | 9378 ft | 255 kts | 136° |
| 2026-05-08 15:44 | 14.60088 | -90.56055 | 9261 ft | 245 kts | 136° |
| 2026-05-08 15:45 | 14.58850 | -90.54889 | 9121 ft | 236 kts | 136° |
| 2026-05-08 15:45 | 14.57615 | -90.53795 | 9012 ft | 230 kts | 144° |
| 2026-05-08 15:45 | 14.56219 | -90.53064 | 8854 ft | 224 kts | 160° |
| 2026-05-08 15:45 | 14.54707 | -90.52656 | 8580 ft | 223 kts | 164° |
| 2026-05-08 15:46 | 14.53215 | -90.52277 | 8283 ft | 223 kts | 165° |
| 2026-05-08 15:46 | 14.51724 | -90.51896 | 8011 ft | 218 kts | 164° |
| 2026-05-08 15:46 | 14.50260 | -90.51522 | 7675 ft | 214 kts | 165° |
| 2026-05-08 15:46 | 14.48831 | -90.51158 | 7375 ft | 208 kts | 164° |
| 2026-05-08 15:47 | 14.47474 | -90.50813 | 7286 ft | 191 kts | 165° |
| 2026-05-08 15:47 | 14.46206 | -90.50778 | 7193 ft | 180 kts | 192° |
| 2026-05-08 15:47 | 14.45125 | -90.51292 | 7151 ft | 165 kts | 216° |
| 2026-05-08 15:47 | 14.44384 | -90.52183 | 7071 ft | 163 kts | 242° |
| 2026-05-08 15:48 | 14.44191 | -90.54396 | 6934 ft | 157 kts | 290° |
| 2026-05-08 15:48 | 14.44719 | -90.55359 | 6854 ft | 153 kts | 314° |
| 2026-05-08 15:48 | 14.45553 | -90.56026 | 6785 ft | 151 kts | 338° |
| 2026-05-08 15:49 | 14.46551 | -90.56312 | 6724 ft | 148 kts | 357° |
| 2026-05-08 15:49 | 14.47541 | -90.56140 | 6671 ft | 146 kts | 20° |
| 2026-05-08 15:49 | 14.48546 | -90.55851 | 6603 ft | 148 kts | 17° |
| 2026-05-08 15:49 | 14.49524 | -90.55559 | 6461 ft | 147 kts | 19° |
| 2026-05-08 15:50 | 14.50501 | -90.55255 | 6283 ft | 146 kts | 17° |
| 2026-05-08 15:50 | 14.51474 | -90.54947 | 6103 ft | 147 kts | 18° |
| 2026-05-08 15:50 | 14.52452 | -90.54635 | 5931 ft | 146 kts | 19° |
| 2026-05-08 15:50 | 14.53414 | -90.54327 | 5718 ft | 146 kts | 18° |
| 2026-05-08 15:51 | 14.54386 | -90.54015 | 5508 ft | 145 kts | 18° |
| 2026-05-08 15:51 | 14.55355 | -90.53704 | 5295 ft | 145 kts | 17° |
| 2026-05-08 15:51 | 14.56314 | -90.53394 | 5078 ft | 142 kts | 19° |
| 2026-05-08 15:51 | 14.57265 | -90.53085 | 4917 ft | 143 kts | 18° |
| 2026-05-08 15:52 | 14.58170 | -90.52794 | 4883 ft | 123 kts | 15° |
| 2026-05-08 15:52 | 14.58766 | -90.52602 | 4896 ft | 49 kts | 17° |
| 2026-05-08 15:52 | 14.58980 | -90.52521 | 4898 ft | 19 kts | 62° |
| 2026-05-08 15:52 | 14.58915 | -90.52477 | 4898 ft | 13 kts | 175° |
| 2026-05-08 15:53 | 14.58859 | -90.52472 | 4894 ft | 8 kts | 175° |
| 2026-05-08 15:53 | 14.58800 | -90.52466 | 4901 ft | 9 kts | 173° |
| 2026-05-08 15:53 | 14.58733 | -90.52461 | 4899 ft | 11 kts | 183° |
| 2026-05-08 15:53 | 14.58701 | -90.52515 | 4894 ft | 10 kts | 275° |
| 2026-05-08 15:54 | 14.58728 | -90.52601 | 4893 ft | 17 kts | 300° |
| 2026-05-08 15:54 | 14.58784 | -90.52709 | 4896 ft | 16 kts | 291° |
| 2026-05-08 15:54 | 14.58866 | -90.52777 | 4898 ft | 14 kts | 349° |
| 2026-05-08 15:54 | 14.58918 | -90.52807 | 4897 ft | 4 kts | 285° |
| 2026-05-08 15:55 | 14.58926 | -90.52835 | 4898 ft | 3 kts | 281° |
| 2026-05-08 15:55 | 14.58935 | -90.52863 | 4897 ft | 0 kts | 294° |